createdAt,value
2018-05-08T00:00:05.703Z,16.1666666667
2018-05-08T00:00:18.153Z,16.1666666667
2018-05-08T00:00:30.621Z,16.2222222222
2018-05-08T00:00:43.060Z,16.1666666667
2018-05-08T00:00:55.484Z,16.1666666667
2018-05-08T00:01:07.901Z,16.1666666667
2018-05-08T00:01:20.312Z,16.1666666667
2018-05-08T00:01:32.734Z,16.1666666667
2018-05-08T00:01:45.171Z,16.1666666667
2018-05-08T00:01:57.577Z,16.1666666667
2018-05-08T00:02:09.996Z,16.1666666667
2018-05-08T00:02:22.419Z,16.1666666667
2018-05-08T00:02:34.915Z,16.1666666667
2018-05-08T00:02:47.345Z,16.1666666667
2018-05-08T00:02:59.755Z,16.1666666667
2018-05-08T00:03:12.161Z,16.1666666667
2018-05-08T00:03:24.600Z,16.1666666667
2018-05-08T00:03:37.060Z,16.1666666667
2018-05-08T00:03:49.483Z,16.1666666667
2018-05-08T00:04:01.902Z,16.1666666667
2018-05-08T00:04:14.343Z,16.1666666667
2018-05-08T00:04:26.778Z,16.1666666667
2018-05-08T00:04:39.184Z,16.1666666667
2018-05-08T00:04:51.602Z,16.1666666667
2018-05-08T00:05:04.275Z,16.1666666667
2018-05-08T00:05:16.716Z,16.1666666667
2018-05-08T00:05:29.153Z,16.1666666667
2018-05-08T00:05:41.647Z,16.1666666667
2018-05-08T00:05:54.073Z,16.1666666667
2018-05-08T00:06:06.495Z,16.1666666667
2018-05-08T00:06:18.912Z,16.1666666667
2018-05-08T00:06:31.342Z,16.1666666667
2018-05-08T00:06:43.752Z,16.1666666667
2018-05-08T00:06:56.174Z,16.1666666667
2018-05-08T00:07:08.593Z,16.1666666667
2018-05-08T00:07:21.013Z,16.1111111111
2018-05-08T00:07:33.453Z,16.1666666667
2018-05-08T00:07:45.869Z,16.1666666667
2018-05-08T00:07:58.279Z,16.1666666667
2018-05-08T00:08:10.681Z,16.1666666667
2018-05-08T00:08:23.095Z,16.1111111111
2018-05-08T00:08:35.494Z,16.1111111111
2018-05-08T00:08:48.091Z,16.1666666667
2018-05-08T00:09:01.262Z,16.1111111111
2018-05-08T00:09:13.688Z,16.1111111111
2018-05-08T00:09:26.119Z,16.1111111111
2018-05-08T00:09:38.532Z,16.1111111111
2018-05-08T00:09:50.936Z,16.1111111111
2018-05-08T00:10:03.584Z,16.1111111111
2018-05-08T00:10:16.010Z,16.1111111111
2018-05-08T00:10:28.422Z,16.1111111111
2018-05-08T00:10:40.845Z,16.1111111111
2018-05-08T00:10:53.261Z,16.1111111111
2018-05-08T00:11:05.732Z,16.1111111111
2018-05-08T00:11:18.143Z,16.0555555556
2018-05-08T00:11:30.824Z,16.0555555556
2018-05-08T00:11:43.251Z,16.0555555556
2018-05-08T00:11:55.668Z,16.1111111111
2018-05-08T00:12:08.100Z,16.0555555556
2018-05-08T00:12:20.529Z,16.0555555556
2018-05-08T00:12:32.980Z,16.0555555556
2018-05-08T00:12:45.392Z,16.0555555556
2018-05-08T00:12:57.789Z,16.0555555556
2018-05-08T00:13:10.374Z,16.0555555556
2018-05-08T00:13:22.791Z,16.0555555556
2018-05-08T00:13:35.211Z,16
2018-05-08T00:13:47.629Z,16
2018-05-08T00:14:00.052Z,16
2018-05-08T00:14:12.459Z,16
2018-05-08T00:14:24.871Z,16
2018-05-08T00:14:37.271Z,16
2018-05-08T00:14:49.694Z,16
2018-05-08T00:15:02.111Z,16
2018-05-08T00:15:14.552Z,16
2018-05-08T00:15:26.981Z,16
2018-05-08T00:15:39.380Z,15.9444444444
2018-05-08T00:15:51.797Z,15.9444444444
2018-05-08T00:16:04.203Z,16
2018-05-08T00:16:16.618Z,16
2018-05-08T00:16:29.069Z,16
2018-05-08T00:16:41.501Z,16
2018-05-08T00:16:53.924Z,16
2018-05-08T00:17:06.322Z,16
2018-05-08T00:17:18.727Z,16
2018-05-08T00:17:31.157Z,15.9444444444
2018-05-08T00:17:43.584Z,15.9444444444
2018-05-08T00:17:56.077Z,15.9444444444
2018-05-08T00:18:08.540Z,16
2018-05-08T00:18:21.040Z,15.9444444444
2018-05-08T00:18:33.465Z,15.9444444444
2018-05-08T00:18:45.863Z,15.9444444444
2018-05-08T00:18:58.288Z,15.9444444444
2018-05-08T00:19:10.702Z,15.9444444444
2018-05-08T00:19:23.115Z,15.9444444444
2018-05-08T00:19:35.596Z,15.9444444444
2018-05-08T00:19:48.010Z,15.9444444444
2018-05-08T00:20:00.421Z,15.9444444444
2018-05-08T00:20:12.830Z,15.9444444444
2018-05-08T00:20:25.262Z,15.9444444444
2018-05-08T00:20:37.660Z,15.9444444444
2018-05-08T00:20:50.150Z,15.9444444444
2018-05-08T00:21:02.569Z,15.9444444444
2018-05-08T00:21:14.975Z,15.8888888889
2018-05-08T00:21:27.389Z,15.9444444444
2018-05-08T00:21:39.804Z,15.8888888889
2018-05-08T00:21:52.342Z,15.8888888889
2018-05-08T00:22:04.757Z,15.8888888889
2018-05-08T00:22:17.141Z,15.8888888889
2018-05-08T00:22:29.546Z,15.8888888889
2018-05-08T00:22:41.958Z,15.8888888889
2018-05-08T00:22:54.374Z,15.8888888889
2018-05-08T00:23:06.838Z,15.8888888889
2018-05-08T00:23:19.243Z,15.8888888889
2018-05-08T00:23:31.654Z,15.8888888889
2018-05-08T00:23:44.073Z,15.8333333333
2018-05-08T00:23:56.660Z,15.8333333333
2018-05-08T00:24:09.147Z,15.8333333333
2018-05-08T00:24:21.551Z,15.8333333333
2018-05-08T00:24:33.963Z,15.8333333333
2018-05-08T00:24:46.729Z,15.8888888889
2018-05-08T00:24:59.146Z,15.8333333333
2018-05-08T00:25:11.554Z,15.8333333333
2018-05-08T00:25:23.959Z,15.8333333333
2018-05-08T00:25:36.413Z,15.8333333333
2018-05-08T00:25:48.884Z,15.8333333333
2018-05-08T00:26:01.288Z,15.8333333333
2018-05-08T00:26:13.692Z,15.8333333333
2018-05-08T00:26:26.094Z,15.8333333333
2018-05-08T00:26:38.519Z,15.8333333333
2018-05-08T00:26:50.963Z,15.8333333333
2018-05-08T00:27:03.367Z,15.7777777778
2018-05-08T00:27:15.777Z,15.8333333333
2018-05-08T00:27:28.190Z,15.8333333333
2018-05-08T00:27:40.613Z,15.7777777778
2018-05-08T00:27:53.072Z,15.7777777778
2018-05-08T00:28:05.475Z,15.7777777778
2018-05-08T00:28:17.874Z,15.7777777778
2018-05-08T00:28:30.293Z,15.7777777778
2018-05-08T00:28:42.732Z,15.7777777778
2018-05-08T00:28:55.154Z,15.7777777778
2018-05-08T00:29:07.630Z,15.7777777778
2018-05-08T00:29:20.147Z,15.7777777778
2018-05-08T00:29:32.566Z,15.7222222222
2018-05-08T00:29:44.996Z,15.7777777778
2018-05-08T00:29:57.406Z,15.7222222222
2018-05-08T00:30:09.818Z,15.7222222222
2018-05-08T00:30:22.307Z,15.7222222222
2018-05-08T00:30:34.726Z,15.7222222222
2018-05-08T00:30:47.130Z,15.7777777778
2018-05-08T00:30:59.539Z,15.7222222222
2018-05-08T00:31:11.957Z,15.7222222222
2018-05-08T00:31:24.364Z,15.7222222222
2018-05-08T00:31:36.772Z,15.7222222222
2018-05-08T00:31:49.187Z,15.7222222222
2018-05-08T00:32:01.680Z,15.7222222222
2018-05-08T00:32:14.095Z,15.7222222222
2018-05-08T00:32:26.503Z,15.7222222222
2018-05-08T00:32:38.919Z,15.7222222222
2018-05-08T00:32:51.349Z,15.7222222222
2018-05-08T00:33:03.761Z,15.7222222222
2018-05-08T00:33:16.158Z,15.7222222222
2018-05-08T00:33:28.589Z,15.7222222222
2018-05-08T00:33:41.000Z,15.7222222222
2018-05-08T00:33:53.453Z,15.7222222222
2018-05-08T00:34:05.975Z,15.7222222222
2018-05-08T00:34:18.405Z,15.7222222222
2018-05-08T00:34:30.810Z,15.7222222222
2018-05-08T00:34:43.224Z,15.7222222222
2018-05-08T00:34:55.622Z,15.7222222222
2018-05-08T00:35:08.059Z,15.7222222222
2018-05-08T00:35:20.468Z,15.6666666667
2018-05-08T00:35:32.874Z,15.6666666667
2018-05-08T00:35:45.289Z,15.6666666667
2018-05-08T00:35:57.785Z,15.6666666667
2018-05-08T00:36:10.195Z,15.6666666667
2018-05-08T00:36:22.612Z,15.6666666667
2018-05-08T00:36:35.028Z,15.6666666667
2018-05-08T00:36:47.458Z,15.6666666667
2018-05-08T00:36:59.874Z,15.6666666667
2018-05-08T00:37:12.364Z,15.6666666667
2018-05-08T00:37:24.776Z,15.6666666667
2018-05-08T00:37:37.189Z,15.6666666667
2018-05-08T00:37:49.587Z,15.6666666667
2018-05-08T00:38:01.989Z,15.6666666667
2018-05-08T00:38:14.436Z,15.6666666667
2018-05-08T00:38:26.841Z,15.6666666667
2018-05-08T00:38:39.257Z,15.6666666667
2018-05-08T00:38:51.746Z,15.6666666667
2018-05-08T00:39:04.189Z,15.6666666667
2018-05-08T00:39:16.635Z,15.6666666667
2018-05-08T00:39:29.088Z,15.6666666667
2018-05-08T00:39:41.650Z,15.6666666667
2018-05-08T00:39:54.083Z,15.6666666667
2018-05-08T00:40:06.494Z,15.6111111111
2018-05-08T00:40:18.924Z,15.6111111111
2018-05-08T00:40:31.326Z,15.6111111111
2018-05-08T00:40:43.733Z,15.6111111111
2018-05-08T00:40:56.135Z,15.6666666667
2018-05-08T00:41:08.536Z,15.6666666667
2018-05-08T00:41:20.940Z,15.6111111111
2018-05-08T00:41:33.334Z,15.6111111111
2018-05-08T00:41:45.754Z,15.6111111111
2018-05-08T00:41:58.162Z,15.6111111111
2018-05-08T00:42:10.566Z,15.5555555556
2018-05-08T00:42:22.993Z,15.6111111111
2018-05-08T00:42:35.402Z,15.6111111111
2018-05-08T00:42:47.831Z,15.6111111111
2018-05-08T00:43:00.223Z,15.6111111111
2018-05-08T00:43:12.623Z,15.6111111111
2018-05-08T00:43:25.049Z,15.5555555556
2018-05-08T00:43:37.456Z,15.5555555556
2018-05-08T00:43:49.852Z,15.6111111111
2018-05-08T00:44:02.265Z,15.5555555556
2018-05-08T00:44:14.677Z,15.5555555556
2018-05-08T00:44:27.087Z,15.5555555556
2018-05-08T00:44:39.528Z,15.5555555556
2018-05-08T00:44:52.321Z,15.5555555556
2018-05-08T00:45:04.735Z,15.5555555556
2018-05-08T00:45:17.389Z,15.5555555556
2018-05-08T00:45:29.798Z,15.5555555556
2018-05-08T00:45:42.215Z,15.5555555556
2018-05-08T00:45:54.606Z,15.5555555556
2018-05-08T00:46:07.089Z,15.5555555556
2018-05-08T00:46:19.491Z,15.5555555556
2018-05-08T00:46:31.883Z,15.5555555556
2018-05-08T00:46:44.316Z,15.5555555556
2018-05-08T00:46:56.723Z,15.5
2018-05-08T00:47:09.142Z,15.5555555556
2018-05-08T00:47:21.540Z,15.5
2018-05-08T00:47:34.028Z,15.5555555556
2018-05-08T00:47:46.431Z,15.5555555556
2018-05-08T00:47:58.893Z,15.5
2018-05-08T00:48:11.286Z,15.5
2018-05-08T00:48:23.847Z,15.5
2018-05-08T00:48:36.260Z,15.5
2018-05-08T00:48:48.819Z,15.5
2018-05-08T00:49:01.239Z,15.5
2018-05-08T00:49:13.647Z,15.5
2018-05-08T00:49:26.058Z,15.5
2018-05-08T00:49:38.623Z,15.5
2018-05-08T00:49:51.027Z,15.4444444444
2018-05-08T00:50:03.441Z,15.4444444444
2018-05-08T00:50:15.921Z,15.4444444444
2018-05-08T00:50:28.338Z,15.4444444444
2018-05-08T00:50:40.826Z,15.4444444444
2018-05-08T00:50:53.224Z,15.5
2018-05-08T00:51:05.627Z,15.5
2018-05-08T00:51:18.390Z,15.5
2018-05-08T00:51:30.802Z,15.5
2018-05-08T00:51:43.222Z,15.4444444444
2018-05-08T00:51:55.634Z,15.4444444444
2018-05-08T00:52:08.054Z,15.4444444444
2018-05-08T00:52:20.457Z,15.4444444444
2018-05-08T00:52:32.869Z,15.4444444444
2018-05-08T00:52:45.309Z,15.4444444444
2018-05-08T00:52:57.736Z,15.4444444444
2018-05-08T00:53:10.174Z,15.4444444444
2018-05-08T00:53:22.593Z,15.4444444444
2018-05-08T00:53:35.019Z,15.4444444444
2018-05-08T00:53:47.428Z,15.4444444444
2018-05-08T00:53:59.833Z,15.4444444444
2018-05-08T00:54:12.254Z,15.4444444444
2018-05-08T00:54:24.663Z,15.4444444444
2018-05-08T00:54:37.100Z,15.4444444444
2018-05-08T00:54:49.512Z,15.4444444444
2018-05-08T00:55:01.944Z,15.5
2018-05-08T00:55:14.392Z,15.5
2018-05-08T00:55:26.794Z,15.4444444444
2018-05-08T00:55:39.197Z,15.4444444444
2018-05-08T00:55:51.606Z,15.5
2018-05-08T00:56:04.009Z,15.4444444444
2018-05-08T00:56:16.431Z,15.4444444444
2018-05-08T00:56:28.850Z,15.5
2018-05-08T00:56:41.287Z,15.4444444444
2018-05-08T00:56:53.686Z,15.5
2018-05-08T00:57:06.173Z,15.4444444444
2018-05-08T00:57:18.588Z,15.5
2018-05-08T00:57:30.997Z,15.5
2018-05-08T00:57:43.392Z,15.5
2018-05-08T00:57:55.806Z,15.5
2018-05-08T00:58:08.234Z,15.5
2018-05-08T00:58:20.695Z,15.5
2018-05-08T00:58:33.115Z,15.4444444444
2018-05-08T00:58:45.526Z,15.5
2018-05-08T00:58:57.930Z,15.5
2018-05-08T00:59:10.344Z,15.5
2018-05-08T00:59:22.754Z,15.5
2018-05-08T00:59:35.166Z,15.5
2018-05-08T00:59:47.574Z,15.5
2018-05-08T00:59:59.983Z,15.5
2018-05-08T01:00:12.409Z,15.5
2018-05-08T01:00:24.848Z,15.5555555556
2018-05-08T01:00:37.283Z,15.5
2018-05-08T01:00:49.705Z,15.5555555556
2018-05-08T01:01:02.125Z,15.5
2018-05-08T01:01:14.541Z,15.5
2018-05-08T01:01:26.963Z,15.5555555556
2018-05-08T01:01:39.443Z,15.5
2018-05-08T01:01:51.868Z,15.5555555556
2018-05-08T01:02:04.276Z,15.5
2018-05-08T01:02:16.688Z,15.5
2018-05-08T01:02:29.104Z,15.5
2018-05-08T01:02:41.720Z,15.5555555556
2018-05-08T01:02:54.193Z,15.5
2018-05-08T01:03:06.601Z,15.5555555556
2018-05-08T01:03:19.009Z,15.5
2018-05-08T01:03:31.425Z,15.5
2018-05-08T01:03:43.850Z,15.5
2018-05-08T01:03:56.283Z,15.5
2018-05-08T01:04:08.686Z,15.5
2018-05-08T01:04:21.084Z,15.5
2018-05-08T01:04:33.549Z,15.5
2018-05-08T01:04:45.949Z,15.5
2018-05-08T01:04:59.019Z,15.5
2018-05-08T01:05:12.141Z,15.5
2018-05-08T01:05:24.564Z,15.5
2018-05-08T01:05:36.976Z,15.5
2018-05-08T01:05:49.386Z,15.5
2018-05-08T01:06:01.870Z,15.5
2018-05-08T01:06:14.275Z,15.5
2018-05-08T01:06:26.667Z,15.5
2018-05-08T01:06:39.090Z,15.5
2018-05-08T01:06:51.520Z,15.5
2018-05-08T01:07:03.918Z,15.5
2018-05-08T01:07:16.347Z,15.5
2018-05-08T01:07:28.837Z,15.5555555556
2018-05-08T01:07:41.361Z,15.5
2018-05-08T01:07:53.762Z,15.5
2018-05-08T01:08:06.179Z,15.5
2018-05-08T01:08:18.592Z,15.5
2018-05-08T01:08:31.060Z,15.5
2018-05-08T01:08:43.467Z,15.5
2018-05-08T01:08:55.886Z,15.5
2018-05-08T01:09:08.289Z,15.5555555556
2018-05-08T01:09:20.722Z,15.5
2018-05-08T01:09:33.143Z,15.5
2018-05-08T01:09:45.562Z,15.5
2018-05-08T01:09:57.968Z,15.5
2018-05-08T01:10:10.384Z,15.5
2018-05-08T01:10:22.786Z,15.5
2018-05-08T01:10:35.199Z,15.5
2018-05-08T01:10:47.630Z,15.5
2018-05-08T01:11:00.066Z,15.5
2018-05-08T01:11:12.474Z,15.5
2018-05-08T01:11:24.877Z,15.5555555556
2018-05-08T01:11:37.653Z,15.5
2018-05-08T01:11:50.511Z,15.4444444444
2018-05-08T01:12:02.923Z,15.5
2018-05-08T01:12:15.338Z,15.5
2018-05-08T01:12:27.756Z,15.5
2018-05-08T01:12:40.204Z,15.4444444444
2018-05-08T01:12:52.625Z,15.5
2018-05-08T01:13:05.043Z,15.4444444444
2018-05-08T01:13:17.469Z,15.4444444444
2018-05-08T01:13:29.881Z,15.4444444444
2018-05-08T01:13:42.293Z,15.5
2018-05-08T01:13:54.702Z,15.4444444444
2018-05-08T01:14:07.133Z,15.4444444444
2018-05-08T01:14:19.558Z,15.5
2018-05-08T01:14:32.064Z,15.4444444444
2018-05-08T01:14:44.497Z,15.5
2018-05-08T01:14:56.994Z,15.5
2018-05-08T01:15:09.435Z,15.5
2018-05-08T01:15:21.858Z,15.4444444444
2018-05-08T01:15:34.268Z,15.5
2018-05-08T01:15:46.686Z,15.5
2018-05-08T01:15:59.105Z,15.5
2018-05-08T01:16:11.547Z,15.5
2018-05-08T01:16:23.964Z,15.4444444444
2018-05-08T01:16:36.385Z,15.5
2018-05-08T01:16:48.812Z,15.4444444444
2018-05-08T01:17:01.540Z,15.5
2018-05-08T01:17:14.842Z,15.5
2018-05-08T01:17:27.300Z,15.4444444444
2018-05-08T01:17:39.803Z,15.5
2018-05-08T01:17:52.200Z,15.5
2018-05-08T01:18:04.609Z,15.5
2018-05-08T01:18:17.022Z,15.4444444444
2018-05-08T01:18:29.616Z,15.5
2018-05-08T01:18:42.017Z,15.5
2018-05-08T01:18:54.470Z,15.4444444444
2018-05-08T01:19:06.907Z,15.5
2018-05-08T01:19:19.318Z,15.5
2018-05-08T01:19:31.750Z,15.5
2018-05-08T01:19:44.151Z,15.5
2018-05-08T01:19:56.577Z,15.5
2018-05-08T01:20:09.007Z,15.5
2018-05-08T01:20:21.522Z,15.5
2018-05-08T01:20:33.930Z,15.5
2018-05-08T01:20:46.342Z,15.5
2018-05-08T01:20:58.760Z,15.5
2018-05-08T01:21:11.167Z,15.5555555556
2018-05-08T01:21:23.574Z,15.5
2018-05-08T01:21:36.054Z,15.5
2018-05-08T01:21:48.463Z,15.5555555556
2018-05-08T01:22:00.887Z,15.5
2018-05-08T01:22:13.315Z,15.5555555556
2018-05-08T01:22:25.745Z,15.5555555556
2018-05-08T01:22:38.164Z,15.5555555556
2018-05-08T01:22:50.612Z,15.5555555556
2018-05-08T01:23:03.032Z,15.5555555556
2018-05-08T01:23:15.444Z,15.5555555556
2018-05-08T01:23:27.872Z,15.5555555556
2018-05-08T01:23:40.279Z,15.5555555556
2018-05-08T01:23:52.746Z,15.5555555556
2018-05-08T01:24:05.149Z,15.5555555556
2018-05-08T01:24:17.553Z,15.5555555556
2018-05-08T01:24:29.991Z,15.5555555556
2018-05-08T01:24:42.551Z,15.5555555556
2018-05-08T01:24:54.970Z,15.5555555556
2018-05-08T01:25:07.391Z,15.5555555556
2018-05-08T01:25:19.897Z,15.5555555556
2018-05-08T01:25:32.314Z,15.5555555556
2018-05-08T01:25:44.729Z,15.5555555556
2018-05-08T01:25:57.127Z,15.5555555556
2018-05-08T01:26:09.539Z,15.5555555556
2018-05-08T01:26:21.946Z,15.5555555556
2018-05-08T01:26:34.350Z,15.5555555556
2018-05-08T01:26:46.759Z,15.6111111111
2018-05-08T01:26:59.181Z,15.5555555556
2018-05-08T01:27:11.591Z,15.5555555556
2018-05-08T01:27:24.080Z,15.5555555556
2018-05-08T01:27:36.487Z,15.5555555556
2018-05-08T01:27:49.061Z,15.5555555556
2018-05-08T01:28:01.478Z,15.5555555556
2018-05-08T01:28:13.902Z,15.5555555556
2018-05-08T01:28:26.317Z,15.5
2018-05-08T01:28:38.731Z,15.5555555556
2018-05-08T01:28:51.132Z,15.5555555556
2018-05-08T01:29:03.548Z,15.5555555556
2018-05-08T01:29:15.961Z,15.5555555556
2018-05-08T01:29:28.465Z,15.5
2018-05-08T01:29:40.929Z,15.5555555556
2018-05-08T01:29:53.350Z,15.5555555556
2018-05-08T01:30:05.745Z,15.5555555556
2018-05-08T01:30:18.158Z,15.5
2018-05-08T01:30:30.571Z,15.5555555556
2018-05-08T01:30:42.985Z,15.5555555556
2018-05-08T01:30:55.385Z,15.5555555556
2018-05-08T01:31:07.800Z,15.5
2018-05-08T01:31:20.270Z,15.5
2018-05-08T01:31:32.802Z,15.5
2018-05-08T01:31:45.862Z,15.5
2018-05-08T01:31:58.271Z,15.5
2018-05-08T01:32:10.679Z,15.5
2018-05-08T01:32:23.089Z,15.5
2018-05-08T01:32:35.564Z,15.5
2018-05-08T01:32:47.981Z,15.5
2018-05-08T01:33:00.398Z,15.5
2018-05-08T01:33:12.805Z,15.5
2018-05-08T01:33:25.215Z,15.5
2018-05-08T01:33:37.610Z,15.5
2018-05-08T01:33:50.021Z,15.5
2018-05-08T01:34:02.427Z,15.5
2018-05-08T01:34:14.931Z,15.5
2018-05-08T01:34:27.358Z,15.5
2018-05-08T01:34:39.783Z,15.5
2018-05-08T01:34:52.199Z,15.5
2018-05-08T01:35:04.620Z,15.5
2018-05-08T01:35:17.029Z,15.5
2018-05-08T01:35:29.431Z,15.5
2018-05-08T01:35:41.837Z,15.5
2018-05-08T01:35:54.241Z,15.5
2018-05-08T01:36:06.657Z,15.5
2018-05-08T01:36:19.064Z,15.4444444444
2018-05-08T01:36:31.504Z,15.4444444444
2018-05-08T01:36:43.916Z,15.4444444444
2018-05-08T01:36:56.317Z,15.4444444444
2018-05-08T01:37:08.742Z,15.4444444444
2018-05-08T01:37:21.157Z,15.5
2018-05-08T01:37:33.563Z,15.4444444444
2018-05-08T01:37:45.973Z,15.4444444444
2018-05-08T01:37:58.401Z,15.4444444444
2018-05-08T01:38:11.016Z,15.4444444444
2018-05-08T01:38:23.417Z,15.4444444444
2018-05-08T01:38:35.834Z,15.4444444444
2018-05-08T01:38:48.233Z,15.4444444444
2018-05-08T01:39:00.647Z,15.4444444444
2018-05-08T01:39:13.048Z,15.4444444444
2018-05-08T01:39:25.602Z,15.4444444444
2018-05-08T01:39:38.018Z,15.4444444444
2018-05-08T01:39:50.657Z,15.4444444444
2018-05-08T01:40:03.075Z,15.4444444444
2018-05-08T01:40:15.492Z,15.4444444444
2018-05-08T01:40:27.899Z,15.4444444444
2018-05-08T01:40:40.297Z,15.4444444444
2018-05-08T01:40:52.702Z,15.4444444444
2018-05-08T01:41:05.115Z,15.4444444444
2018-05-08T01:41:17.526Z,15.4444444444
2018-05-08T01:41:29.929Z,15.4444444444
2018-05-08T01:41:42.333Z,15.4444444444
2018-05-08T01:41:54.745Z,15.4444444444
2018-05-08T01:42:07.158Z,15.4444444444
2018-05-08T01:42:19.597Z,15.4444444444
2018-05-08T01:42:32.013Z,15.4444444444
2018-05-08T01:42:44.426Z,15.4444444444
2018-05-08T01:42:56.813Z,15.4444444444
2018-05-08T01:43:09.312Z,15.4444444444
2018-05-08T01:43:22.516Z,15.4444444444
2018-05-08T01:43:35.025Z,15.4444444444
2018-05-08T01:43:47.433Z,15.4444444444
2018-05-08T01:43:59.832Z,15.4444444444
2018-05-08T01:44:12.254Z,15.4444444444
2018-05-08T01:44:24.688Z,15.4444444444
2018-05-08T01:44:37.104Z,15.3888888889
2018-05-08T01:44:49.544Z,15.4444444444
2018-05-08T01:45:02.393Z,15.3888888889
2018-05-08T01:45:14.815Z,15.4444444444
2018-05-08T01:45:27.360Z,15.3888888889
2018-05-08T01:45:39.759Z,15.3888888889
2018-05-08T01:45:52.157Z,15.3888888889
2018-05-08T01:46:04.556Z,15.3888888889
2018-05-08T01:46:16.953Z,15.3888888889
2018-05-08T01:46:29.370Z,15.3888888889
2018-05-08T01:46:41.933Z,15.3888888889
2018-05-08T01:46:54.367Z,15.3888888889
2018-05-08T01:47:06.791Z,15.3888888889
2018-05-08T01:47:19.303Z,15.3888888889
2018-05-08T01:47:31.718Z,15.3888888889
2018-05-08T01:47:44.154Z,15.3333333333
2018-05-08T01:47:56.572Z,15.3888888889
2018-05-08T01:48:08.984Z,15.3888888889
2018-05-08T01:48:21.538Z,15.3888888889
2018-05-08T01:48:33.945Z,15.3888888889
2018-05-08T01:48:46.360Z,15.3888888889
2018-05-08T01:48:58.938Z,15.3888888889
2018-05-08T01:49:11.356Z,15.3888888889
2018-05-08T01:49:23.758Z,15.3888888889
2018-05-08T01:49:36.346Z,15.3888888889
2018-05-08T01:49:48.742Z,15.3888888889
2018-05-08T01:50:01.165Z,15.3888888889
2018-05-08T01:50:13.600Z,15.3888888889
2018-05-08T01:50:26.001Z,15.3888888889
2018-05-08T01:50:38.411Z,15.3333333333
2018-05-08T01:50:50.809Z,15.3333333333
2018-05-08T01:51:03.224Z,15.3333333333
2018-05-08T01:51:15.626Z,15.3888888889
2018-05-08T01:51:28.054Z,15.3888888889
2018-05-08T01:51:40.473Z,15.3333333333
2018-05-08T01:51:52.881Z,15.3333333333
2018-05-08T01:52:05.305Z,15.3333333333
2018-05-08T01:52:17.717Z,15.3333333333
2018-05-08T01:52:30.116Z,15.3333333333
2018-05-08T01:52:42.536Z,15.3333333333
2018-05-08T01:52:54.940Z,15.3333333333
2018-05-08T01:53:07.354Z,15.3333333333
2018-05-08T01:53:19.844Z,15.3333333333
2018-05-08T01:53:32.270Z,15.3333333333
2018-05-08T01:53:44.668Z,15.3333333333
2018-05-08T01:53:57.066Z,15.3333333333
2018-05-08T01:54:09.475Z,15.3333333333
2018-05-08T01:54:21.888Z,15.3333333333
2018-05-08T01:54:34.306Z,15.3333333333
2018-05-08T01:54:46.731Z,15.3333333333
2018-05-08T01:54:59.222Z,15.3333333333
2018-05-08T01:55:11.643Z,15.3333333333
2018-05-08T01:55:24.042Z,15.3333333333
2018-05-08T01:55:36.458Z,15.3333333333
2018-05-08T01:55:48.873Z,15.3333333333
2018-05-08T01:56:01.281Z,15.2777777778
2018-05-08T01:56:13.700Z,15.3333333333
2018-05-08T01:56:26.120Z,15.2777777778
2018-05-08T01:56:38.536Z,15.3333333333
2018-05-08T01:56:50.954Z,15.3333333333
2018-05-08T01:57:03.372Z,15.2777777778
2018-05-08T01:57:15.788Z,15.2777777778
2018-05-08T01:57:28.278Z,15.2777777778
2018-05-08T01:57:40.685Z,15.2777777778
2018-05-08T01:57:53.108Z,15.2777777778
2018-05-08T01:58:05.508Z,15.2777777778
2018-05-08T01:58:17.899Z,15.2777777778
2018-05-08T01:58:30.304Z,15.2777777778
2018-05-08T01:58:42.724Z,15.2777777778
2018-05-08T01:58:55.205Z,15.2777777778
2018-05-08T01:59:07.618Z,15.2777777778
2018-05-08T01:59:20.025Z,15.2777777778
2018-05-08T01:59:32.441Z,15.2222222222
2018-05-08T01:59:44.846Z,15.2777777778
2018-05-08T01:59:57.293Z,15.2222222222
2018-05-08T02:00:09.729Z,15.2222222222
2018-05-08T02:00:22.391Z,15.2222222222
2018-05-08T02:00:34.855Z,15.2222222222
2018-05-08T02:00:47.291Z,15.2222222222
2018-05-08T02:00:59.721Z,15.2222222222
2018-05-08T02:01:12.168Z,15.2222222222
2018-05-08T02:01:24.596Z,15.2222222222
2018-05-08T02:01:37.025Z,15.2222222222
2018-05-08T02:01:49.466Z,15.2222222222
2018-05-08T02:02:01.886Z,15.2222222222
2018-05-08T02:02:14.295Z,15.2222222222
2018-05-08T02:02:26.711Z,15.2222222222
2018-05-08T02:02:39.122Z,15.1666666667
2018-05-08T02:02:51.549Z,15.1666666667
2018-05-08T02:03:03.966Z,15.1666666667
2018-05-08T02:03:16.393Z,15.1666666667
2018-05-08T02:03:28.811Z,15.1666666667
2018-05-08T02:03:41.240Z,15.1666666667
2018-05-08T02:03:53.649Z,15.1666666667
2018-05-08T02:04:06.088Z,15.1666666667
2018-05-08T02:04:18.495Z,15.1666666667
2018-05-08T02:04:30.918Z,15.1666666667
2018-05-08T02:04:43.325Z,15.1666666667
2018-05-08T02:04:55.732Z,15.1666666667
2018-05-08T02:05:08.227Z,15.1666666667
2018-05-08T02:05:20.692Z,15.1666666667
2018-05-08T02:05:33.122Z,15.1666666667
2018-05-08T02:05:45.536Z,15.1666666667
2018-05-08T02:05:57.963Z,15.1666666667
2018-05-08T02:06:10.405Z,15.1666666667
2018-05-08T02:06:22.815Z,15.1111111111
2018-05-08T02:06:35.222Z,15.1666666667
2018-05-08T02:06:47.628Z,15.1666666667
2018-05-08T02:07:00.030Z,15.1666666667
2018-05-08T02:07:12.446Z,15.1111111111
2018-05-08T02:07:24.907Z,15.1111111111
2018-05-08T02:07:37.329Z,15.1666666667
2018-05-08T02:07:49.733Z,15.1111111111
2018-05-08T02:08:02.147Z,15.1111111111
2018-05-08T02:08:14.563Z,15.1111111111
2018-05-08T02:08:26.978Z,15.1111111111
2018-05-08T02:08:39.391Z,15.1666666667
2018-05-08T02:08:51.798Z,15.1111111111
2018-05-08T02:09:04.230Z,15.1111111111
2018-05-08T02:09:16.633Z,15.1111111111
2018-05-08T02:09:29.045Z,15.1666666667
2018-05-08T02:09:41.442Z,15.1111111111
2018-05-08T02:09:53.867Z,15.1111111111
2018-05-08T02:10:06.276Z,15.1111111111
2018-05-08T02:10:18.817Z,15.1111111111
2018-05-08T02:10:31.238Z,15.1111111111
2018-05-08T02:10:43.661Z,15.1111111111
2018-05-08T02:10:56.065Z,15.1111111111
2018-05-08T02:11:08.482Z,15.1111111111
2018-05-08T02:11:20.892Z,15.1111111111
2018-05-08T02:11:33.494Z,15.1111111111
2018-05-08T02:11:45.916Z,15.1111111111
2018-05-08T02:11:58.362Z,15.0555555556
2018-05-08T02:12:10.792Z,15.1111111111
2018-05-08T02:12:23.207Z,15.0555555556
2018-05-08T02:12:35.636Z,15.0555555556
2018-05-08T02:12:48.073Z,15.0555555556
2018-05-08T02:13:00.496Z,15.0555555556
2018-05-08T02:13:12.901Z,15.0555555556
2018-05-08T02:13:25.300Z,15.0555555556
2018-05-08T02:13:37.708Z,15
2018-05-08T02:13:50.118Z,15
2018-05-08T02:14:02.527Z,15.0555555556
2018-05-08T02:14:14.941Z,15
2018-05-08T02:14:27.352Z,15
2018-05-08T02:14:39.762Z,15
2018-05-08T02:14:52.176Z,15
2018-05-08T02:15:04.591Z,15
2018-05-08T02:15:17.016Z,15
2018-05-08T02:15:29.462Z,15
2018-05-08T02:15:41.863Z,15
2018-05-08T02:15:54.343Z,15